createdAt,value
2022-11-08T00:00:24.266Z,79.88
2022-11-08T00:03:09.545Z,79.95
2022-11-08T00:06:13.540Z,79.92
2022-11-08T00:09:14.461Z,78.92
2022-11-08T00:12:15.832Z,78.67
2022-11-08T00:14:59.753Z,77.75
2022-11-08T00:17:43.557Z,77.75
2022-11-08T00:20:28.739Z,77.32
2022-11-08T00:23:12.500Z,78.54
2022-11-08T00:25:56.395Z,78.87
2022-11-08T00:28:40.302Z,78.89
2022-11-08T00:31:24.021Z,79.13
2022-11-08T00:34:07.683Z,79.59
2022-11-08T00:36:54.559Z,79.67
2022-11-08T00:39:38.484Z,79.21
2022-11-08T00:42:22.168Z,80.34
2022-11-08T00:45:07.045Z,80.39
2022-11-08T00:47:50.693Z,80.44
2022-11-08T00:50:34.489Z,81.18
2022-11-08T00:53:19.685Z,80.76
2022-11-08T00:56:05.961Z,79.67
2022-11-08T00:58:49.812Z,78.96
2022-11-08T01:01:34.045Z,80.33
2022-11-08T01:04:20.093Z,79.86
2022-11-08T01:07:04.552Z,79.72
2022-11-08T01:09:49.743Z,79.83
2022-11-08T01:12:33.706Z,80.00
2022-11-08T01:15:17.493Z,80.47
2022-11-08T01:18:01.295Z,80.31
2022-11-08T01:20:46.841Z,80.40
2022-11-08T01:23:30.951Z,79.34
2022-11-08T01:26:18.624Z,79.63
2022-11-08T01:29:02.286Z,80.09
2022-11-08T01:31:46.058Z,79.51
2022-11-08T01:34:29.841Z,81.30
2022-11-08T01:37:13.747Z,81.82
2022-11-08T01:39:57.487Z,80.99
2022-11-08T01:42:42.634Z,81.29
2022-11-08T01:46:17.813Z,79.93
2022-11-08T01:49:24.879Z,80.63
2022-11-08T01:52:14.708Z,79.90
2022-11-08T01:55:04.047Z,80.69
2022-11-08T01:57:54.481Z,80.18
2022-11-08T02:00:39.551Z,79.93
2022-11-08T02:03:24.056Z,79.30
2022-11-08T02:06:09.072Z,78.55
2022-11-08T02:08:52.833Z,80.78
2022-11-08T02:11:37.878Z,80.72
2022-11-08T02:14:23.093Z,79.49
2022-11-08T02:17:07.507Z,79.64
2022-11-08T02:19:52.123Z,78.19
2022-11-08T02:22:42.859Z,78.24
2022-11-08T02:25:28.115Z,78.22
2022-11-08T02:28:12.044Z,78.38
2022-11-08T02:30:55.802Z,78.29
2022-11-08T02:33:40.268Z,79.63
2022-11-08T02:36:25.621Z,79.67
2022-11-08T02:39:09.423Z,79.31
2022-11-08T02:41:54.566Z,79.31
2022-11-08T02:44:38.196Z,78.94
2022-11-08T02:47:21.943Z,79.82
2022-11-08T02:50:06.539Z,80.05
2022-11-08T02:52:50.298Z,79.98
2022-11-08T02:55:35.651Z,80.00
2022-11-08T02:58:21.189Z,80.48
2022-11-08T03:01:05.099Z,79.57
2022-11-08T03:03:48.960Z,79.38
2022-11-08T03:06:32.628Z,79.11
2022-11-08T03:09:16.330Z,81.01
2022-11-08T03:12:00.157Z,80.69
2022-11-08T03:14:45.303Z,79.92
2022-11-08T03:17:29.077Z,80.76
2022-11-08T03:20:13.140Z,80.31
2022-11-08T03:23:00.446Z,79.84
2022-11-08T03:25:44.177Z,80.04
2022-11-08T03:28:28.294Z,79.32
2022-11-08T03:31:13.497Z,80.36
2022-11-08T03:33:57.233Z,80.95
2022-11-08T03:36:40.905Z,81.01
2022-11-08T03:39:24.671Z,80.41
2022-11-08T03:42:08.768Z,79.55
2022-11-08T03:44:52.386Z,79.62
2022-11-08T03:47:40.159Z,79.59
2022-11-08T03:50:24.051Z,79.54
2022-11-08T03:53:07.763Z,79.23
2022-11-08T03:55:51.417Z,79.18
2022-11-08T03:58:35.981Z,79.30
2022-11-08T04:01:19.993Z,78.74
2022-11-08T04:04:05.525Z,78.51
2022-11-08T04:06:49.282Z,78.18
2022-11-08T04:09:33.049Z,79.01
2022-11-08T04:12:34.469Z,78.99
2022-11-08T04:15:22.812Z,78.43
2022-11-08T04:18:24.152Z,78.81
2022-11-08T04:21:22.917Z,79.23
2022-11-08T04:24:07.262Z,78.82
2022-11-08T04:26:51.025Z,78.22
2022-11-08T04:29:34.804Z,77.81
2022-11-08T04:32:18.530Z,77.88
2022-11-08T04:35:02.214Z,76.40
2022-11-08T04:37:47.847Z,75.59
2022-11-08T04:40:32.348Z,77.06
2022-11-08T04:43:16.155Z,78.28
2022-11-08T04:46:01.430Z,77.94
2022-11-08T04:48:45.814Z,77.92
2022-11-08T04:51:31.504Z,77.43
2022-11-08T04:54:16.916Z,77.46
2022-11-08T04:57:00.775Z,77.71
2022-11-08T04:59:44.694Z,76.92
2022-11-08T05:02:28.700Z,76.35
2022-11-08T05:05:12.811Z,75.58
2022-11-08T05:07:56.824Z,76.30
2022-11-08T05:10:42.495Z,76.03
2022-11-08T05:13:26.521Z,75.99
2022-11-08T05:16:13.464Z,75.94
2022-11-08T05:18:58.114Z,75.31
2022-11-08T05:21:59.696Z,76.02
2022-11-08T05:24:43.641Z,75.90
2022-11-08T05:27:29.540Z,75.56
2022-11-08T05:30:13.989Z,74.81
2022-11-08T05:32:57.774Z,75.16
2022-11-08T05:35:41.474Z,76.26
2022-11-08T05:38:25.203Z,76.20
2022-11-08T05:41:11.931Z,75.35
2022-11-08T05:43:57.186Z,75.78
2022-11-08T05:46:41.056Z,75.62
2022-11-08T05:49:25.104Z,75.76
2022-11-08T05:52:09.038Z,76.42
2022-11-08T05:54:53.501Z,75.91
2022-11-08T05:57:37.468Z,74.89
2022-11-08T06:00:23.305Z,74.49
2022-11-08T06:03:07.888Z,74.39
2022-11-08T06:05:52.258Z,74.49
2022-11-08T06:08:37.005Z,73.94
2022-11-08T06:11:22.814Z,73.79
2022-11-08T06:14:07.115Z,73.85
2022-11-08T06:16:52.728Z,73.44
2022-11-08T06:19:36.646Z,72.54
2022-11-08T06:22:20.871Z,72.78
2022-11-08T06:25:05.490Z,72.60
2022-11-08T06:27:49.697Z,72.32
2022-11-08T06:30:33.743Z,71.44
2022-11-08T06:33:20.753Z,71.60
2022-11-08T06:36:05.427Z,70.83
2022-11-08T06:38:49.484Z,69.93
2022-11-08T06:41:34.024Z,69.33
2022-11-08T06:44:17.770Z,68.08
2022-11-08T06:47:01.558Z,69.86
2022-11-08T06:49:46.878Z,70.18
2022-11-08T06:52:30.606Z,68.60
2022-11-08T06:55:14.276Z,69.41
2022-11-08T06:57:57.986Z,69.37
2022-11-08T07:00:41.857Z,69.30
2022-11-08T07:03:25.640Z,67.45
2022-11-08T07:06:10.947Z,66.71
2022-11-08T07:08:54.824Z,65.41
2022-11-08T07:11:38.660Z,66.33
2022-11-08T07:14:22.530Z,65.33
2022-11-08T07:17:06.225Z,65.40
2022-11-08T07:19:49.986Z,66.41
2022-11-08T07:22:35.133Z,67.64
2022-11-08T07:25:19.254Z,66.31
2022-11-08T07:28:05.387Z,67.52
2022-11-08T07:30:50.659Z,65.37
2022-11-08T07:33:34.914Z,64.78
2022-11-08T07:36:18.936Z,64.60
2022-11-08T07:39:06.759Z,65.53
2022-11-08T07:41:50.918Z,64.76
2022-11-08T07:44:34.767Z,64.34
2022-11-08T07:47:18.514Z,64.34
2022-11-08T07:50:02.583Z,63.97
2022-11-08T07:52:50.883Z,64.66
2022-11-08T07:55:37.348Z,64.04
2022-11-08T07:58:21.109Z,64.04
2022-11-08T08:01:07.108Z,63.62
2022-11-08T08:03:51.323Z,64.02
2022-11-08T08:06:35.538Z,63.95
2022-11-08T08:09:19.302Z,62.50
2022-11-08T08:12:05.121Z,62.45
2022-11-08T08:14:49.048Z,62.78
2022-11-08T08:17:33.467Z,62.14
2022-11-08T08:20:17.361Z,62.12
2022-11-08T08:23:01.675Z,60.71
2022-11-08T08:25:45.533Z,60.98
2022-11-08T08:28:30.774Z,60.91
2022-11-08T08:31:14.525Z,61.22
2022-11-08T08:33:58.282Z,60.37
2022-11-08T08:36:42.154Z,59.56
2022-11-08T08:39:25.938Z,59.43
2022-11-08T08:42:09.590Z,60.12
2022-11-08T08:44:54.998Z,59.77
2022-11-08T08:47:38.728Z,59.16
2022-11-08T08:50:22.916Z,57.73
2022-11-08T08:53:07.727Z,58.25
2022-11-08T08:55:52.905Z,58.78
2022-11-08T08:58:36.856Z,58.29
2022-11-08T09:01:38.689Z,59.29
2022-11-08T09:04:22.581Z,58.62
2022-11-08T09:07:07.649Z,59.07
2022-11-08T09:09:51.923Z,59.08
2022-11-08T09:12:36.526Z,57.42
2022-11-08T09:15:20.691Z,57.01
2022-11-08T09:18:06.035Z,55.68
2022-11-08T09:20:49.952Z,55.76
2022-11-08T09:23:33.662Z,54.69
2022-11-08T09:26:17.463Z,53.83
2022-11-08T09:29:01.890Z,55.45
2022-11-08T09:31:45.857Z,54.34
2022-11-08T09:34:31.037Z,54.12
2022-11-08T09:37:15.663Z,54.63
2022-11-08T09:39:59.770Z,54.08
2022-11-08T09:43:00.926Z,54.14
2022-11-08T09:45:47.561Z,54.02
2022-11-08T09:48:35.380Z,53.88
2022-11-08T09:51:24.442Z,52.92
2022-11-08T09:54:19.735Z,52.86
2022-11-08T09:57:05.424Z,52.25
2022-11-08T09:59:53.540Z,52.75
2022-11-08T10:02:38.141Z,52.50
2022-11-08T10:05:22.413Z,52.42
2022-11-08T10:08:14.396Z,51.22
2022-11-08T10:11:17.701Z,50.17
2022-11-08T10:14:23.642Z,49.30
2022-11-08T10:17:22.156Z,49.75
2022-11-08T10:20:16.948Z,49.19
2022-11-08T10:23:11.565Z,49.40
2022-11-08T10:26:01.227Z,50.03
2022-11-08T10:28:50.568Z,49.02
2022-11-08T10:31:38.854Z,48.00
2022-11-08T10:34:35.243Z,48.13
2022-11-08T10:37:19.690Z,48.75
2022-11-08T10:40:16.933Z,51.37
2022-11-08T10:43:09.495Z,51.76
2022-11-08T10:45:53.660Z,52.87
2022-11-08T10:48:40.293Z,52.30
2022-11-08T10:51:24.014Z,51.39
2022-11-08T10:54:08.613Z,52.72
2022-11-08T10:56:56.881Z,52.71
2022-11-08T10:59:42.920Z,53.36
2022-11-08T11:02:30.072Z,52.13
2022-11-08T11:05:23.037Z,51.79
2022-11-08T11:08:16.849Z,50.82
2022-11-08T11:11:23.834Z,52.28
2022-11-08T11:14:16.283Z,50.86
2022-11-08T11:17:16.709Z,50.01
2022-11-08T11:20:01.551Z,49.77
2022-11-08T11:22:47.851Z,50.19
2022-11-08T11:25:31.879Z,51.19
2022-11-08T11:28:16.110Z,51.82
2022-11-08T11:31:02.895Z,52.80
2022-11-08T11:33:48.097Z,51.33
2022-11-08T11:36:32.533Z,50.77
2022-11-08T11:39:24.018Z,50.89
2022-11-08T11:42:39.373Z,51.46
2022-11-08T11:45:21.412Z,52.16
2022-11-08T11:48:12.652Z,51.15
2022-11-08T11:50:58.376Z,50.65
2022-11-08T11:53:47.516Z,50.36
2022-11-08T11:56:46.801Z,51.27
2022-11-08T11:59:57.673Z,51.06
2022-11-08T12:03:14.504Z,52.13
2022-11-08T12:06:25.842Z,50.39
2022-11-08T12:09:33.972Z,50.67
2022-11-08T12:12:34.684Z,50.07
2022-11-08T12:15:26.956Z,49.90
2022-11-08T12:18:44.560Z,50.84
2022-11-08T12:21:38.193Z,50.06
2022-11-08T12:24:35.182Z,49.59
2022-11-08T12:27:33.046Z,49.03
2022-11-08T12:30:20.620Z,50.13
2022-11-08T12:33:20.882Z,50.56
2022-11-08T12:36:15.764Z,50.50
2022-11-08T12:39:08.842Z,49.91
2022-11-08T12:42:04.429Z,48.96
2022-11-08T12:45:16.903Z,49.54
2022-11-08T12:48:11.019Z,49.16
2022-11-08T12:51:01.908Z,48.82
2022-11-08T12:54:18.216Z,49.12
2022-11-08T12:57:10.128Z,51.71
2022-11-08T13:00:00.875Z,51.31
2022-11-08T13:02:53.338Z,50.89
2022-11-08T13:05:44.184Z,50.34
2022-11-08T13:08:32.989Z,51.77
2022-11-08T13:11:23.527Z,51.74
2022-11-08T13:14:15.493Z,50.67
2022-11-08T13:17:23.002Z,50.23
2022-11-08T13:20:09.017Z,50.46
2022-11-08T13:23:00.680Z,50.41
2022-11-08T13:25:45.201Z,50.29
2022-11-08T13:28:39.433Z,50.15
2022-11-08T13:31:40.669Z,50.05
2022-11-08T13:34:43.354Z,50.36
2022-11-08T13:37:44.108Z,50.33
2022-11-08T13:40:43.932Z,50.65
2022-11-08T13:43:29.924Z,50.68
2022-11-08T13:46:51.986Z,51.20
2022-11-08T13:49:35.735Z,50.81
2022-11-08T13:52:45.693Z,51.14
2022-11-08T13:55:49.632Z,51.18
2022-11-08T13:58:37.272Z,51.31
2022-11-08T14:02:00.738Z,51.21
2022-11-08T14:04:45.747Z,51.36
2022-11-08T14:07:35.592Z,52.22
2022-11-08T14:10:25.289Z,53.37
2022-11-08T14:13:20.682Z,54.52
2022-11-08T14:16:14.166Z,54.41
2022-11-08T14:19:18.708Z,55.38
2022-11-08T14:22:03.883Z,55.29
2022-11-08T14:24:48.079Z,56.01
2022-11-08T14:27:37.452Z,55.97
2022-11-08T14:30:24.483Z,55.97
2022-11-08T14:33:16.718Z,56.36
2022-11-08T14:36:04.429Z,56.98
2022-11-08T14:38:50.069Z,58.02
2022-11-08T14:41:35.420Z,58.07
2022-11-08T14:44:19.528Z,58.28
2022-11-08T14:47:03.336Z,58.63
2022-11-08T14:49:49.158Z,59.03
2022-11-08T14:52:34.631Z,59.11
2022-11-08T14:55:25.011Z,58.97
2022-11-08T14:58:14.949Z,59.43
2022-11-08T15:01:00.918Z,60.52
2022-11-08T15:03:48.901Z,60.80
2022-11-08T15:06:37.758Z,61.08
2022-11-08T15:09:26.560Z,61.79
2022-11-08T15:12:16.674Z,62.61
2022-11-08T15:15:02.726Z,62.82
2022-11-08T15:17:49.568Z,62.60
2022-11-08T15:20:33.737Z,62.69
2022-11-08T15:23:26.210Z,62.20
2022-11-08T15:26:22.632Z,62.64
2022-11-08T15:29:09.211Z,63.57
2022-11-08T15:32:00.973Z,63.14
2022-11-08T15:34:46.391Z,63.13
2022-11-08T15:37:33.521Z,63.01
2022-11-08T15:40:21.035Z,63.22
2022-11-08T15:43:06.218Z,63.21
2022-11-08T15:45:54.753Z,63.66
2022-11-08T15:48:38.471Z,64.18
2022-11-08T15:51:22.279Z,64.73
2022-11-08T15:54:06.349Z,64.22
2022-11-08T15:56:51.730Z,65.54
2022-11-08T15:59:37.633Z,65.68
2022-11-08T16:02:23.057Z,66.15
2022-11-08T16:05:16.045Z,65.85
2022-11-08T16:08:00.031Z,67.96
2022-11-08T16:10:46.227Z,68.42
2022-11-08T16:13:33.114Z,67.91
2022-11-08T16:16:19.246Z,66.87
2022-11-08T16:19:03.317Z,67.42
2022-11-08T16:21:47.900Z,67.51
2022-11-08T16:24:31.947Z,68.52
2022-11-08T16:27:16.127Z,68.34
2022-11-08T16:30:00.197Z,68.26
2022-11-08T16:32:45.986Z,67.86
2022-11-08T16:35:30.007Z,67.88
2022-11-08T16:38:14.112Z,68.12
2022-11-08T16:40:58.245Z,68.37
2022-11-08T16:43:42.294Z,68.18
2022-11-08T16:46:26.342Z,68.63
2022-11-08T16:49:21.131Z,69.45
2022-11-08T16:52:05.123Z,69.62
2022-11-08T16:54:49.132Z,70.09
2022-11-08T16:57:34.973Z,69.84
2022-11-08T17:00:21.302Z,69.77
2022-11-08T17:03:05.717Z,70.58
2022-11-08T17:05:51.274Z,70.21
2022-11-08T17:08:35.040Z,69.77
2022-11-08T17:11:21.181Z,70.12
2022-11-08T17:14:05.203Z,70.75
2022-11-08T17:16:52.804Z,70.46
2022-11-08T17:19:36.633Z,70.68
2022-11-08T17:22:21.876Z,70.43
2022-11-08T17:25:06.588Z,70.19
2022-11-08T17:27:51.544Z,70.91
2022-11-08T17:30:37.231Z,70.51
2022-11-08T17:33:21.597Z,71.09
2022-11-08T17:36:07.263Z,70.78
2022-11-08T17:38:52.527Z,71.00
2022-11-08T17:41:36.360Z,71.57
2022-11-08T17:44:20.326Z,71.90
2022-11-08T17:47:04.483Z,71.87
2022-11-08T17:49:48.313Z,72.26
2022-11-08T17:52:32.102Z,72.60
2022-11-08T17:55:17.626Z,73.15
2022-11-08T17:58:01.664Z,73.41
2022-11-08T18:00:45.880Z,73.54
2022-11-08T18:03:30.298Z,74.16
2022-11-08T18:06:16.567Z,75.75
2022-11-08T18:09:00.559Z,75.37
2022-11-08T18:11:47.969Z,75.21
2022-11-08T18:14:32.149Z,74.64
2022-11-08T18:17:16.003Z,74.88
2022-11-08T18:19:59.924Z,74.63
2022-11-08T18:22:43.699Z,74.52
2022-11-08T18:25:27.847Z,75.29
2022-11-08T18:28:13.009Z,74.80
2022-11-08T18:30:56.765Z,75.18
2022-11-08T18:33:41.520Z,75.53
2022-11-08T18:36:27.359Z,75.09
2022-11-08T18:39:14.074Z,74.35
2022-11-08T18:42:02.258Z,75.28
2022-11-08T18:44:47.512Z,75.02
2022-11-08T18:47:31.323Z,75.46
2022-11-08T18:50:15.283Z,75.42
2022-11-08T18:53:03.291Z,75.68
2022-11-08T18:55:48.492Z,74.84
2022-11-08T18:58:32.414Z,74.16
2022-11-08T19:01:19.747Z,74.97
2022-11-08T19:04:03.546Z,74.78
2022-11-08T19:06:54.143Z,74.53
2022-11-08T19:09:39.474Z,75.05
2022-11-08T19:12:23.207Z,76.02
2022-11-08T19:15:07.838Z,77.16
2022-11-08T19:17:53.997Z,77.15
2022-11-08T19:20:37.855Z,77.48
2022-11-08T19:23:22.531Z,77.67
2022-11-08T19:26:09.250Z,78.09
2022-11-08T19:28:55.455Z,78.54
2022-11-08T19:31:39.293Z,78.99
2022-11-08T19:34:24.606Z,78.78
2022-11-08T19:37:08.717Z,78.46
2022-11-08T19:39:52.559Z,78.35
2022-11-08T19:42:37.519Z,78.47
2022-11-08T19:45:21.340Z,78.47
2022-11-08T19:48:05.681Z,77.95
2022-11-08T19:50:51.849Z,77.71
2022-11-08T19:53:36.001Z,78.19
2022-11-08T19:56:29.156Z,77.66
2022-11-08T19:59:21.995Z,77.33
2022-11-08T20:02:05.895Z,76.94
2022-11-08T20:04:49.708Z,76.32
2022-11-08T20:07:34.962Z,75.65
2022-11-08T20:10:18.807Z,75.14
2022-11-08T20:13:02.885Z,75.04
2022-11-08T20:15:48.671Z,75.68
2022-11-08T20:18:33.101Z,75.95
2022-11-08T20:21:18.723Z,75.95
2022-11-08T20:24:03.991Z,75.65
2022-11-08T20:26:49.594Z,74.63
2022-11-08T20:29:33.443Z,75.09
2022-11-08T20:32:17.260Z,74.69
2022-11-08T20:35:04.251Z,74.48
2022-11-08T20:37:48.500Z,74.44
2022-11-08T20:40:33.693Z,74.39
2022-11-08T20:43:17.481Z,74.50
2022-11-08T20:46:03.859Z,74.78
2022-11-08T20:48:52.027Z,74.76
2022-11-08T20:51:36.448Z,75.33
2022-11-08T20:54:21.003Z,75.52
2022-11-08T20:57:06.322Z,75.89
2022-11-08T20:59:50.424Z,76.04
2022-11-08T21:02:34.205Z,76.33
2022-11-08T21:05:20.505Z,77.40
2022-11-08T21:08:57.429Z,77.31
2022-11-08T21:11:10.198Z,77.22
2022-11-08T21:13:55.427Z,77.17
2022-11-08T21:17:06.780Z,77.51
2022-11-08T21:19:44.044Z,76.88
2022-11-08T21:22:27.938Z,76.71
2022-11-08T21:25:11.765Z,77.13
2022-11-08T21:27:55.952Z,76.82
2022-11-08T21:30:44.974Z,77.80
2022-11-08T21:33:29.433Z,78.26
2022-11-08T21:36:13.983Z,78.63
2022-11-08T21:38:57.970Z,79.22
2022-11-08T21:41:41.824Z,78.57
2022-11-08T21:44:25.912Z,78.37
2022-11-08T21:47:11.214Z,77.70
2022-11-08T21:49:55.468Z,77.78
2022-11-08T21:52:39.209Z,78.49
2022-11-08T21:55:23.097Z,78.52
2022-11-08T21:58:06.970Z,78.82
2022-11-08T22:00:51.884Z,79.48
2022-11-08T22:03:37.451Z,79.57
2022-11-08T22:06:21.977Z,79.30
2022-11-08T22:09:05.921Z,80.52
2022-11-08T22:11:49.864Z,79.74
2022-11-08T22:14:33.719Z,79.35
2022-11-08T22:17:18.302Z,79.15
2022-11-08T22:20:03.546Z,79.15
2022-11-08T22:22:47.611Z,79.20
2022-11-08T22:25:31.431Z,79.63
2022-11-08T22:28:15.388Z,80.52
2022-11-08T22:30:59.367Z,79.69
2022-11-08T22:33:43.322Z,79.41
2022-11-08T22:36:28.729Z,79.72
2022-11-08T22:39:14.396Z,79.26
2022-11-08T22:41:58.216Z,78.28
2022-11-08T22:44:42.242Z,79.55
2022-11-08T22:47:26.463Z,79.46
2022-11-08T22:50:10.993Z,79.95
2022-11-08T22:52:56.595Z,79.54
2022-11-08T22:55:41.240Z,79.86
2022-11-08T22:58:25.230Z,80.64
2022-11-08T23:01:12.196Z,81.47
2022-11-08T23:03:56.401Z,80.80
2022-11-08T23:06:41.398Z,80.35
2022-11-08T23:09:27.215Z,80.26
2022-11-08T23:12:29.367Z,80.91
2022-11-08T23:15:30.773Z,80.85
2022-11-08T23:18:14.963Z,81.11
2022-11-08T23:21:16.466Z,81.04
2022-11-08T23:24:18.315Z,80.82
2022-11-08T23:27:22.536Z,81.67
2022-11-08T23:30:26.042Z,81.34
2022-11-08T23:33:10.085Z,81.26
2022-11-08T23:36:16.124Z,81.02
2022-11-08T23:39:00.325Z,80.63
2022-11-08T23:42:01.956Z,80.91
2022-11-08T23:44:47.434Z,81.25
2022-11-08T23:47:31.711Z,82.05
2022-11-08T23:50:15.862Z,80.78
2022-11-08T23:53:01.074Z,80.99
2022-11-08T23:55:45.353Z,80.43
2022-11-08T23:58:29.351Z,80.13
